Latest Coastal Weather Observations for Whyalla

IDS60701

Issued at 11:51 pm CST Monday 30 May 2016 (issued every 10 minutes, with the page automatically refreshed every 10 minutes)

About coastal observations | Map of coastal stations | Coastal observations for SA | Marine services | Other Formats
Station Details ID: 018120 Name: WHYALLA AERO Lat: -33.05 Lon: 137.52 Height: 9.3 m
Data from the previous 72 hours. | See also: Recent months at Whyalla
Date/Time
CST
Temp

°C
Wind Pressure Rain
since 9am
mm
Weather Cloud Vis
km
Sea
Height
m
Swell
Dir
 
Speed
knots
Gust
knots
hPa Trend Height
m
Period
s
Dir
30/11:30pm 15.6 N 9 12 1020.5 - 0.0 - - 10 - - - -
30/11:00pm 15.7 N 10 15 1020.4 - 0.0 - Partly cloudy 10 - - - -
30/10:30pm 15.4 N 9 13 1020.4 - 0.0 - - 10 - - - -
30/10:00pm 14.7 NNE 5 6 1020.3 - 0.0 - Partly cloudy 10 - - - -
30/09:30pm 15.4 NE 5 7 1020.3 - 0.0 - Partly cloudy 10 - - - -
30/09:00pm 16.6 NNE 7 11 1020.2 - 0.0 - Cloudy 10 - - - -
30/08:30pm 16.7 N 6 9 1020.0 - 0.0 - Cloudy 10 - - - -
30/08:00pm 16.5 N 6 8 1019.8 - 0.0 - Cloudy 10 - - - -
30/07:30pm 17.0 NW 6 10 1019.6 - 0.0 - Cloudy 10 - - - -
30/07:00pm 18.0 NNE 9 13 1019.2 - 0.0 - Cloudy 10 - - - -
30/06:30pm 17.7 NNE 7 9 1018.8 - 0.0 - Cloudy 10 - - - -
30/06:00pm 17.8 NE 6 8 1018.6 - 0.0 - Mostly cloudy 10 - - - -
30/05:30pm 18.3 NE 5 7 1018.3 - 0.0 - Cloudy 10 - - - -
30/05:00pm 19.0 NNE 9 13 1018.1 - 0.0 - Cloudy 10 - - - -
30/04:30pm 19.2 N 7 9 1017.8 - 0.0 - Cloudy 10 - - - -
30/04:00pm 19.2 N 9 13 1017.7 - 0.0 - Partly cloudy 10 - - - -
30/03:30pm 19.1 N 13 17 1017.4 - 0.0 - Partly cloudy 10 - - - -
30/03:00pm 19.5 NNW 13 17 1017.4 - 0.0 - Cloudy 10 - - - -
30/02:30pm 18.9 NNW 17 21 1017.4 - 0.0 - Partly cloudy 10 - - - -
30/02:00pm 19.1 NNW 17 21 1017.4 - 0.0 - Partly cloudy 10 - - - -
30/01:30pm 19.0 NNW 17 23 1017.5 - 0.0 - Partly cloudy 10 - - - -
30/01:00pm 18.3 NNW 18 23 1017.7 - 0.0 - Partly cloudy 10 - - - -
30/12:30pm 18.4 NNW 16 22 1018.2 - 0.0 - Partly cloudy 10 - - - -
30/12:00pm 18.2 N 18 22 1018.6 - 0.0 - Mostly cloudy 10 - - - -
30/11:30am 18.0 NNW 19 25 1018.9 - 0.0 - Partly cloudy 10 - - - -
30/11:00am 17.9 NNW 17 24 1019.3 - 0.0 - Partly cloudy 10 - - - -
30/10:30am 17.2 NNW 18 24 1019.4 - 0.0 - - 10 - - - -
30/10:00am 16.6 N 17 23 1019.4 - 0.0 - - 10 - - - -
30/09:30am 15.4 N 14 19 1019.5 - 0.0 - - 10 - - - -
30/09:00am 14.4 NNW 12 16 1019.3 - 0.0 - Cloudy 10 - - - -
30/08:30am 13.5 N 12 16 1019.0 - 0.0 - Partly cloudy 10 - - - -
30/08:00am 13.6 NNW 11 14 1018.8 - 0.0 - Partly cloudy 10 - - - -
30/07:30am 13.1 NNW 12 16 1018.5 - 0.0 - Partly cloudy 10 - - - -
30/07:00am 13.4 N 12 16 1018.0 - 0.0 - Partly cloudy 10 - - - -
30/06:30am 14.0 N 13 20 1017.8 - 0.0 - Cloudy 10 - - - -
30/06:00am 14.2 NNW 12 16 1017.4 - 0.0 - Mostly cloudy 10 - - - -
30/05:30am 13.6 N 8 11 1017.2 - 0.0 - Partly cloudy 10 - - - -
30/05:00am 12.9 NW 5 7 1017.1 - 0.0 - Partly cloudy 10 - - - -
30/04:30am 13.9 NNW 8 13 1017.0 - 0.0 - Partly cloudy 10 - - - -
30/04:00am 14.0 NNW 10 15 1016.8 - 0.0 - Partly cloudy 10 - - - -
30/03:30am 14.5 N 10 14 1016.6 - 0.0 - Cloudy 10 - - - -
30/03:00am 14.5 N 9 14 1016.9 - 0.0 - Cloudy 10 - - - -
30/02:30am 13.7 N 9 13 1017.0 - 0.0 - Partly cloudy 10 - - - -
30/02:00am 12.9 N 5 7 1016.9 - 0.0 - Partly cloudy 10 - - - -
30/01:30am 14.1 N 10 13 1016.9 - 0.0 - - 10 - - - -
30/01:00am 14.2 N 9 12 1017.1 - 0.0 - Partly cloudy 10 - - - -
30/12:30am 14.5 NNE 8 11 1017.1 - 0.0 - Partly cloudy 10 - - - -
30/12:00am 14.8 N 11 14 1017.2 - 0.0 - Cloudy 10 - - - -
 
Date/Time
CST
Temp

°C
Wind Pressure Rain
since 9am
mm
Weather Cloud Vis
km
Sea
Height
m
Swell
Dir
 
Speed
knots
Gust
knots
hPa Trend Height
m
Period
s
Dir
29/11:30pm 14.9 NNE 9 12 1017.4 - 0.0 - Cloudy 10 - - - -
29/11:00pm 14.5 NNE 7 10 1017.5 - 0.0 - Cloudy 10 - - - -
29/10:30pm 14.2 NNE 6 8 1017.7 - 0.0 - Cloudy 10 - - - -
29/10:00pm 12.8 NNE 1 3 1017.9 - 0.0 - Cloudy 10 - - - -
29/09:30pm 13.2 NNE 5 7 1017.9 - 0.0 - Cloudy 10 - - - -
29/09:00pm 13.1 NNE 6 7 1017.8 - 0.0 - Mostly cloudy 10 - - - -
29/08:30pm 13.5 NE 6 8 1017.8 - 0.0 - - 10 - - - -
29/08:00pm 13.6 NNE 6 7 1017.7 - 0.0 - - 10 - - - -
29/07:30pm 14.4 NNE 7 10 1017.6 - 0.0 - - 10 - - - -
29/07:00pm 14.8 NNE 7 10 1017.5 - 0.0 - - 10 - - - -
29/06:30pm 14.9 NNE 6 8 1017.3 - 0.0 - - 10 - - - -
29/06:00pm 15.3 NNE 7 9 1016.9 - 0.0 - - 10 - - - -
29/05:30pm 16.4 NNE 7 10 1016.7 - 0.0 - - 10 - - - -
29/05:00pm 17.2 N 10 13 1016.5 - 0.0 - - 10 - - - -
29/04:30pm 18.1 N 9 13 1016.4 - 0.0 - Partly cloudy 10 - - - -
29/04:00pm 18.4 N 12 16 1016.3 - 0.0 - Partly cloudy 10 - - - -
29/03:30pm 18.5 N 13 18 1016.3 - 0.0 - Partly cloudy 10 - - - -
29/03:00pm 18.6 N 12 17 1016.4 - 0.0 - Cloudy 10 - - - -
29/02:30pm 18.4 N 12 18 1016.5 - 0.0 - Partly cloudy 10 - - - -
29/02:00pm 18.4 N 13 17 1016.7 - 0.0 - Partly cloudy 10 - - - -
29/01:30pm 18.0 N 15 21 1017.1 - 0.0 - Partly cloudy 10 - - - -
29/01:00pm 18.4 N 15 19 1017.5 - 0.0 - Partly cloudy 10 - - - -
29/12:30pm 17.2 N 13 16 1017.8 - 0.0 - - 10 - - - -
29/12:00pm 18.2 N 14 19 1018.3 - 0.0 - Mostly cloudy 10 - - - -
29/11:30am 17.4 N 14 17 1018.6 - 0.0 - - 10 - - - -
29/11:00am 17.6 N 12 16 1018.8 - 0.0 - - 10 - - - -
29/10:30am 16.4 N 12 15 1019.1 - 0.0 - - 10 - - - -
29/10:00am 15.4 N 13 18 1019.2 - 0.0 - - 10 - - - -
29/09:30am 14.5 N 12 15 1019.2 - 0.0 - - 10 - - - -
29/09:00am 13.5 N 7 13 1019.2 - 0.0 - Partly cloudy 10 - - - -
29/08:30am 11.4 NNW 6 7 1019.1 - 0.0 - Cloudy 10 - - - -
29/08:00am 10.3 NNW 5 6 1018.8 - 0.0 - Partly cloudy 10 - - - -
29/07:30am 9.5 NNW 5 5 1018.6 - 0.0 - Cloudy 10 - - - -
29/07:00am 9.4 NNW 4 5 1018.5 - 0.0 - Partly cloudy 10 - - - -
29/06:30am 9.5 NW 6 8 1018.3 - 0.0 - Partly cloudy 10 - - - -
29/06:00am 9.0 NW 5 5 1018.1 - 0.0 - Cloudy 10 - - - -
29/05:30am 8.9 NNW 7 8 1017.8 - 0.0 - Partly cloudy 10 - - - -
29/05:00am 9.0 NNW 6 7 1017.8 - 0.0 - Partly cloudy 10 - - - -
29/04:30am 9.1 NW 3 4 1018.0 - 0.0 - Cloudy 10 - - - -
29/04:00am 9.9 N 3 4 1017.8 - 0.0 - Cloudy 10 - - - -
29/03:30am 9.7 N 4 5 1017.9 - 0.0 - Cloudy 10 - - - -
29/03:00am 9.3 NNW 5 6 1018.0 - 0.0 - Cloudy 10 - - - -
29/02:30am 9.6 NW 7 9 1018.0 - 0.0 - Cloudy 10 - - - -
29/02:00am 8.9 NNW 5 9 1017.9 - 0.0 - Cloudy 10 - - - -
29/01:30am 8.2 N 5 6 1017.9 - 0.0 - Cloudy 10 - - - -
29/01:00am 7.1 NNW 5 6 1018.1 - 0.0 - Cloudy 10 - - - -
29/12:30am 6.7 NNW 4 5 1018.1 - 0.0 - Partly cloudy 10 - - - -
29/12:00am 7.3 NW 4 6 1018.3 - 0.0 - Mostly cloudy 10 - - - -
 
Date/Time
CST
Temp

°C
Wind Pressure Rain
since 9am
mm
Weather Cloud Vis
km
Sea
Height
m
Swell
Dir
 
Speed
knots
Gust
knots
hPa Trend Height
m
Period
s
Dir
28/11:30pm 6.8 NW 7 8 1018.6 - 0.0 - Partly cloudy 10 - - - -
28/11:00pm 6.7 NW 5 6 1018.6 - 0.0 - - 10 - - - -
28/10:30pm 7.1 NNW 4 5 1018.5 - 0.0 - - 10 - - - -
28/10:00pm 8.2 WSW 4 5 1018.6 - 0.0 - - 10 - - - -
28/09:30pm 7.7 W 5 6 1018.7 - 0.0 - - 10 - - - -
28/09:00pm 8.1 WNW 4 5 1018.5 - 0.0 - - 10 - - - -
28/08:30pm 8.7 WNW 3 4 1018.5 - 0.0 - - 10 - - - -
28/08:00pm 8.9 WNW 4 5 1018.7 - 0.0 - - 10 - - - -
28/07:30pm 10.0 SSE 3 5 1018.6 - 0.0 - - 10 - - - -
28/07:00pm 10.6 S 5 5 1018.3 - 0.0 - - 10 - - - -
28/06:30pm 11.9 SSE 3 4 1018.1 - 0.0 - - 10 - - - -
28/06:00pm 12.6 S 6 6 1017.9 - 0.0 - - 10 - - - -
28/05:30pm 13.9 S 5 6 1017.8 - 0.0 - - 10 - - - -
28/05:00pm 15.4 S 6 9 1017.5 - 0.0 - - 10 - - - -
28/04:30pm 15.8 S 8 11 1017.3 - 0.0 - - 10 - - - -
28/04:00pm 16.1 S 9 12 1017.1 - 0.0 - - 10 - - - -
28/03:30pm 16.1 S 11 13 1017.1 - 0.0 - - 10 - - - -
28/03:00pm 16.2 S 11 15 1016.9 - 0.0 - Mostly clear 10 - - - -
28/02:30pm 16.9 S 9 13 1016.8 - 0.0 - Partly cloudy 10 - - - -
28/02:00pm 16.4 S 9 12 1016.8 - 0.0 - - 10 - - - -
28/01:30pm 16.1 SSE 9 13 1017.0 - 0.0 - Partly cloudy 10 - - - -
28/01:00pm 16.5 S 10 14 1017.2 - 0.0 - Partly cloudy 10 - - - -
28/12:30pm 16.6 SSE 12 16 1017.2 - 0.0 - Partly cloudy 10 - - - -
28/12:00pm 16.6 SSE 12 18 1017.1 - 0.0 - Cloudy 10 - - - -
28/11:30am 15.6 S 13 16 1017.2 - 0.0 - Partly cloudy 10 - - - -
28/11:00am 14.8 S 14 21 1017.3 - 0.0 - Partly cloudy 10 - - - -
28/10:30am 15.1 SSW 12 17 1017.5 - 0.0 - Partly cloudy 10 - - - -
28/10:00am 15.5 SSW 12 15 1017.4 - 0.0 - Partly cloudy 10 - - - -
28/09:30am 15.0 SW 11 15 1017.2 - 0.0 - Partly cloudy 10 - - - -
28/09:00am 13.7 SW 9 12 1016.8 - 1.2 - - 10 - - - -
28/08:30am 12.4 WSW 9 12 1016.3 - 1.2 - - 10 - - - -
28/08:00am 11.1 WSW 7 10 1016.1 - 1.2 - - 10 - - - -
28/07:30am 10.4 WSW 8 10 1015.9 - 1.2 - Partly cloudy 10 - - - -
28/07:00am 10.7 WSW 11 15 1015.7 - 1.2 - Partly cloudy 10 - - - -
28/06:30am 10.7 W 11 15 1015.3 - 1.2 - - 10 - - - -
28/06:00am 10.3 W 9 13 1014.9 - 1.2 - Partly cloudy 10 - - - -
28/05:30am 10.0 WNW 8 12 1014.6 - 1.2 - Partly cloudy 10 - - - -
28/05:00am 10.1 WNW 9 11 1014.2 - 1.2 - Partly cloudy 10 - - - -
28/04:30am 10.1 WNW 10 12 1013.9 - 1.2 - Partly cloudy 10 - - - -
28/04:00am 10.3 NW 11 14 1013.8 - 1.2 - Partly cloudy 10 - - - -
28/03:30am 10.1 NW 9 11 1013.8 - 1.2 - Partly cloudy 10 - - - -
28/03:00am 9.5 NNW 9 11 1013.7 - 1.2 - Partly cloudy 10 - - - -
28/02:30am 10.1 NW 10 13 1013.8 - 1.2 - Partly cloudy 10 - - - -
28/02:00am 10.3 NW 9 12 1013.7 - 1.2 - Partly cloudy 10 - - - -
28/01:30am 9.9 NW 9 12 1013.8 - 1.2 - Partly cloudy 10 - - - -
28/01:00am 9.6 NW 9 12 1013.9 - 1.2 - - 10 - - - -
28/12:30am 9.7 NW 9 11 1014.1 - 1.2 - - 10 - - - -
28/12:00am 10.2 NW 9 11 1014.3 - 1.2 - - 10 - - - -

Other Formats:

Comma delimited format used in spreadsheet applications
http://www.bom.gov.au/fwo/IDS60701/IDS60701.95664.axf

JavaScript Object Notation format (JSON) in row-major order
http://www.bom.gov.au/fwo/IDS60701/IDS60701.95664.json